createdAt,value
2017-05-23T00:00:16.491Z,17.84
2017-05-23T00:01:25.453Z,17.84
2017-05-23T00:02:34.421Z,17.84
2017-05-23T00:03:43.391Z,17.89
2017-05-23T00:04:52.766Z,17.87
2017-05-23T00:06:01.728Z,17.77
2017-05-23T00:07:11.405Z,17.75
2017-05-23T00:08:20.369Z,17.66
2017-05-23T00:09:29.885Z,17.66
2017-05-23T00:10:40.566Z,17.7
2017-05-23T00:11:50.580Z,17.72
2017-05-23T00:12:59.682Z,17.63
2017-05-23T00:14:09.499Z,17.52
2017-05-23T00:15:18.463Z,17.51
2017-05-23T00:16:28.024Z,17.49
2017-05-23T00:17:36.982Z,17.41
2017-05-23T00:18:45.945Z,17.44
2017-05-23T00:19:54.912Z,17.43
2017-05-23T00:21:04.623Z,17.43
2017-05-23T00:22:13.834Z,17.34
2017-05-23T00:23:23.267Z,17.3
2017-05-23T00:24:32.318Z,17.26
2017-05-23T00:25:41.879Z,17.23
2017-05-23T00:26:50.886Z,17.31
2017-05-23T00:28:00.645Z,17.25
2017-05-23T00:29:09.608Z,17.25
2017-05-23T00:30:18.993Z,17.28
2017-05-23T00:31:27.956Z,17.36
2017-05-23T00:32:37.139Z,17.21
2017-05-23T00:33:46.599Z,17.19
2017-05-23T00:34:55.561Z,17.31
2017-05-23T00:36:04.911Z,17.28
2017-05-23T00:37:13.871Z,17.26
2017-05-23T00:38:22.925Z,17.21
2017-05-23T00:39:32.174Z,17.31
2017-05-23T00:40:41.138Z,17.26
2017-05-23T00:41:50.099Z,17.23
2017-05-23T00:42:59.716Z,17.28
2017-05-23T00:44:08.764Z,17.34
2017-05-23T00:45:18.427Z,17.31
2017-05-23T00:46:27.388Z,17.33
2017-05-23T00:47:36.705Z,17.3
2017-05-23T00:48:45.666Z,17.34
2017-05-23T00:49:54.628Z,17.36
2017-05-23T00:51:03.840Z,17.31
2017-05-23T00:52:12.883Z,17.33
2017-05-23T00:53:21.886Z,17.23
2017-05-23T00:54:31.234Z,17.23
2017-05-23T00:55:40.190Z,17.25
2017-05-23T00:56:49.664Z,17.25
2017-05-23T00:57:58.926Z,17.3
2017-05-23T00:59:08.153Z,17.31
2017-05-23T01:00:17.682Z,17.36
2017-05-23T01:01:27.086Z,17.37
2017-05-23T01:02:36.590Z,17.41
2017-05-23T01:03:45.819Z,17.36
2017-05-23T01:04:55.025Z,17.43
2017-05-23T01:06:03.987Z,17.37
2017-05-23T01:07:13.472Z,17.43
2017-05-23T01:08:22.688Z,17.43
2017-05-23T01:09:32.157Z,17.43
2017-05-23T01:10:41.205Z,17.4
2017-05-23T01:11:50.205Z,17.38
2017-05-23T01:12:59.253Z,17.4
2017-05-23T01:14:08.472Z,17.41
2017-05-23T01:15:17.432Z,17.38
2017-05-23T01:16:27.123Z,17.38
2017-05-23T01:17:36.080Z,17.41
2017-05-23T01:18:45.508Z,17.41
2017-05-23T01:19:54.718Z,17.4
2017-05-23T01:21:04.214Z,17.36
2017-05-23T01:22:13.178Z,17.37
2017-05-23T01:23:22.570Z,17.34
2017-05-23T01:24:31.538Z,17.34
2017-05-23T01:25:40.748Z,17.36
2017-05-23T01:26:49.707Z,17.31
2017-05-23T01:27:58.956Z,17.33
2017-05-23T01:29:07.921Z,17.3
2017-05-23T01:30:17.478Z,17.34
2017-05-23T01:31:26.684Z,17.34
2017-05-23T01:32:35.967Z,17.3
2017-05-23T01:33:44.933Z,17.28
2017-05-23T01:34:53.893Z,17.31
2017-05-23T01:36:02.863Z,17.31
2017-05-23T01:37:12.077Z,17.26
2017-05-23T01:38:21.150Z,17.25
2017-05-23T01:39:30.107Z,17.25
2017-05-23T01:40:39.069Z,17.34
2017-05-23T01:41:48.031Z,17.3
2017-05-23T01:42:57.246Z,17.26
2017-05-23T01:44:06.209Z,17.31
2017-05-23T01:45:15.167Z,17.21
2017-05-23T01:46:24.124Z,17.21
2017-05-23T01:47:33.082Z,17.21
2017-05-23T01:48:42.296Z,17.22
2017-05-23T01:49:51.269Z,17.19
2017-05-23T01:51:00.227Z,17.26
2017-05-23T01:52:09.843Z,17.21
2017-05-23T01:53:18.803Z,17.14
2017-05-23T01:54:28.337Z,17.15
2017-05-23T01:55:37.361Z,17.14
2017-05-23T01:56:46.323Z,17.12
2017-05-23T01:57:55.281Z,17.14
2017-05-23T01:59:04.243Z,17.12
2017-05-23T02:00:13.457Z,17.12
2017-05-23T02:01:22.421Z,17.08
2017-05-23T02:02:31.385Z,17.15
2017-05-23T02:03:40.343Z,17.18
2017-05-23T02:04:49.391Z,17.18
2017-05-23T02:05:58.628Z,17.11
2017-05-23T02:07:07.585Z,17.07
2017-05-23T02:08:16.549Z,17.15
2017-05-23T02:09:25.849Z,17.15
2017-05-23T02:10:34.811Z,17.16
2017-05-23T02:11:44.343Z,17.14
2017-05-23T02:12:53.396Z,17.04
2017-05-23T02:14:02.358Z,17
2017-05-23T02:15:11.645Z,16.97
2017-05-23T02:16:20.606Z,17
2017-05-23T02:17:29.815Z,17.01
2017-05-23T02:18:38.779Z,16.93
2017-05-23T02:19:47.744Z,16.94
2017-05-23T02:20:56.700Z,16.96
2017-05-23T02:22:05.657Z,16.98
2017-05-23T02:23:15.194Z,17
2017-05-23T02:24:24.157Z,16.93
2017-05-23T02:25:33.121Z,16.97
2017-05-23T02:26:42.083Z,16.96
2017-05-23T02:27:51.045Z,16.94
2017-05-23T02:29:00.260Z,16.97
2017-05-23T02:30:09.321Z,16.94
2017-05-23T02:31:18.283Z,16.97
2017-05-23T02:32:27.240Z,17.01
2017-05-23T02:33:36.526Z,16.94
2017-05-23T02:34:45.738Z,16.96
2017-05-23T02:35:54.698Z,16.98
2017-05-23T02:37:03.660Z,16.97
2017-05-23T02:38:12.954Z,16.97
2017-05-23T02:39:21.914Z,17.01
2017-05-23T02:40:31.127Z,17
2017-05-23T02:41:40.083Z,16.88
2017-05-23T02:42:49.059Z,16.86
2017-05-23T02:43:58.025Z,16.94
2017-05-23T02:45:06.985Z,16.91
2017-05-23T02:46:16.246Z,16.89
2017-05-23T02:47:25.242Z,16.91
2017-05-23T02:48:34.224Z,16.91
2017-05-23T02:49:43.192Z,16.91
2017-05-23T02:50:52.164Z,16.85
2017-05-23T02:52:01.425Z,17
2017-05-23T02:53:10.386Z,16.93
2017-05-23T02:54:19.436Z,16.96
2017-05-23T02:55:28.393Z,16.85
2017-05-23T02:56:37.347Z,16.88
2017-05-23T02:57:46.561Z,16.89
2017-05-23T02:58:55.525Z,16.82
2017-05-23T03:00:04.502Z,16.81
2017-05-23T03:01:13.802Z,16.79
2017-05-23T03:02:22.756Z,16.81
2017-05-23T03:03:31.966Z,16.81
2017-05-23T03:04:40.924Z,16.85
2017-05-23T03:05:49.887Z,16.81
2017-05-23T03:06:58.846Z,16.76
2017-05-23T03:08:07.814Z,16.78
2017-05-23T03:09:17.031Z,16.81
2017-05-23T03:10:25.997Z,16.81
2017-05-23T03:11:34.954Z,16.78
2017-05-23T03:12:43.927Z,16.81
2017-05-23T03:13:52.892Z,16.81
2017-05-23T03:15:05.599Z,16.81
2017-05-23T03:16:14.565Z,16.75
2017-05-23T03:17:23.648Z,16.75
2017-05-23T03:18:32.606Z,16.82
2017-05-23T03:19:41.570Z,16.79
2017-05-23T03:20:50.827Z,16.73
2017-05-23T03:21:59.787Z,16.78
2017-05-23T03:23:08.757Z,16.76
2017-05-23T03:24:17.716Z,16.7
2017-05-23T03:25:26.674Z,16.71
2017-05-23T03:26:35.930Z,16.73
2017-05-23T03:27:44.893Z,16.68
2017-05-23T03:28:53.856Z,16.76
2017-05-23T03:30:02.903Z,16.71
2017-05-23T03:31:11.865Z,16.73
2017-05-23T03:32:21.070Z,16.67
2017-05-23T03:33:30.030Z,16.76
2017-05-23T03:34:38.986Z,16.76
2017-05-23T03:35:47.954Z,16.75
2017-05-23T03:36:56.997Z,16.78
2017-05-23T03:38:06.207Z,16.75
2017-05-23T03:39:15.169Z,16.78
2017-05-23T03:40:24.129Z,16.79
2017-05-23T03:41:33.086Z,16.7
2017-05-23T03:42:42.039Z,16.79
2017-05-23T03:43:51.301Z,16.75
2017-05-23T03:45:00.263Z,16.79
2017-05-23T03:46:09.220Z,16.81
2017-05-23T03:47:18.181Z,16.88
2017-05-23T03:48:27.149Z,16.88
2017-05-23T03:49:36.365Z,16.86
2017-05-23T03:50:45.324Z,16.85
2017-05-23T03:51:54.371Z,16.81
2017-05-23T03:53:03.329Z,16.79
2017-05-23T03:54:12.292Z,16.83
2017-05-23T03:55:21.503Z,16.83
2017-05-23T03:56:30.459Z,16.85
2017-05-23T03:57:39.421Z,16.78
2017-05-23T03:58:48.392Z,16.76
2017-05-23T03:59:57.350Z,16.76
2017-05-23T04:01:06.567Z,16.79
2017-05-23T04:02:15.525Z,16.78
2017-05-23T04:03:24.485Z,16.73
2017-05-23T04:04:33.448Z,16.75
2017-05-23T04:05:42.410Z,16.7
2017-05-23T04:06:51.711Z,16.78
2017-05-23T04:08:00.752Z,16.7
2017-05-23T04:09:09.726Z,16.76
2017-05-23T04:10:18.699Z,16.68
2017-05-23T04:11:27.655Z,16.81
2017-05-23T04:12:36.869Z,16.73
2017-05-23T04:13:45.839Z,16.81
2017-05-23T04:14:54.809Z,16.76
2017-05-23T04:16:03.857Z,16.82
2017-05-23T04:17:12.816Z,16.79
2017-05-23T04:18:22.078Z,16.85
2017-05-23T04:19:31.038Z,16.81
2017-05-23T04:20:40.000Z,16.79
2017-05-23T04:21:48.958Z,16.86
2017-05-23T04:22:58.047Z,16.88
2017-05-23T04:24:07.267Z,16.86
2017-05-23T04:25:16.319Z,16.91
2017-05-23T04:26:25.285Z,16.97
2017-05-23T04:27:34.246Z,16.94
2017-05-23T04:28:43.214Z,16.93
2017-05-23T04:29:52.435Z,16.91
2017-05-23T04:31:01.395Z,16.94
2017-05-23T04:32:10.355Z,16.93
2017-05-23T04:33:19.315Z,17.11
2017-05-23T04:34:28.283Z,16.98
2017-05-23T04:35:37.494Z,17.07
2017-05-23T04:36:46.455Z,17.06
2017-05-23T04:37:55.412Z,17.08
2017-05-23T04:39:04.373Z,17.15
2017-05-23T04:40:13.661Z,17.18
2017-05-23T04:41:22.877Z,17.16
2017-05-23T04:42:31.838Z,17.16
2017-05-23T04:43:40.796Z,17.12
2017-05-23T04:44:49.770Z,17.15
2017-05-23T04:45:58.727Z,17.11
2017-05-23T04:47:07.933Z,17.12
2017-05-23T04:48:16.895Z,17.15
2017-05-23T04:49:26.189Z,17.19
2017-05-23T04:50:35.149Z,17.23
2017-05-23T04:51:44.113Z,17.19
2017-05-23T04:52:53.323Z,17.31
2017-05-23T04:54:02.287Z,17.31
2017-05-23T04:55:11.258Z,17.3
2017-05-23T04:56:20.213Z,17.25
2017-05-23T04:57:29.173Z,17.33
2017-05-23T04:58:38.394Z,17.28
2017-05-23T04:59:47.361Z,17.4
2017-05-23T05:00:56.392Z,17.37
2017-05-23T05:02:05.354Z,17.44
2017-05-23T05:03:14.313Z,17.49
2017-05-23T05:04:23.580Z,17.44
2017-05-23T05:05:32.633Z,17.46
2017-05-23T05:06:41.654Z,17.44
2017-05-23T05:07:50.705Z,17.55
2017-05-23T05:08:59.711Z,17.58
2017-05-23T05:10:08.926Z,17.58
2017-05-23T05:11:17.895Z,17.59
2017-05-23T05:12:26.859Z,17.64
2017-05-23T05:13:35.821Z,17.59
2017-05-23T05:14:44.784Z,17.63
2017-05-23T05:15:53.994Z,17.7
2017-05-23T05:17:02.962Z,17.59
2017-05-23T05:18:11.933Z,17.72
2017-05-23T05:19:20.902Z,17.75
2017-05-23T05:20:29.883Z,17.59
2017-05-23T05:21:39.095Z,17.75
2017-05-23T05:22:48.380Z,17.78
2017-05-23T05:23:57.338Z,17.71
2017-05-23T05:25:06.298Z,17.79
2017-05-23T05:26:15.437Z,17.78
2017-05-23T05:27:24.643Z,17.89
2017-05-23T05:28:33.693Z,17.86
2017-05-23T05:29:42.654Z,17.9
2017-05-23T05:30:51.705Z,17.9
2017-05-23T05:32:00.666Z,17.95
2017-05-23T05:33:09.926Z,17.96
2017-05-23T05:34:18.891Z,18.07
2017-05-23T05:35:27.906Z,18.1
2017-05-23T05:36:36.868Z,18.07
2017-05-23T05:37:45.827Z,18.08
2017-05-23T05:38:55.044Z,18.12
2017-05-23T05:40:04.005Z,18.18
2017-05-23T05:41:12.963Z,18.14
2017-05-23T05:42:22.249Z,18.15
2017-05-23T05:43:31.222Z,18.26
2017-05-23T05:44:40.486Z,18.15
2017-05-23T05:45:49.443Z,18.15
2017-05-23T05:46:58.488Z,18.12
2017-05-23T05:48:07.449Z,18.14
2017-05-23T05:49:16.415Z,18.18
2017-05-23T05:50:25.677Z,18.14
2017-05-23T05:51:34.642Z,18.14
2017-05-23T05:52:43.612Z,18.21
2017-05-23T05:53:52.578Z,18.17
2017-05-23T05:55:01.539Z,18.26
2017-05-23T05:56:10.894Z,18.29
2017-05-23T05:57:19.856Z,18.3
2017-05-23T05:58:28.821Z,18.29
2017-05-23T05:59:37.787Z,18.27
2017-05-23T06:00:46.835Z,18.32
2017-05-23T06:01:56.045Z,18.35
2017-05-23T06:03:05.003Z,18.39
2017-05-23T06:04:13.963Z,18.33
2017-05-23T06:05:22.923Z,18.44
2017-05-23T06:06:31.891Z,18.45
2017-05-23T06:07:41.241Z,18.51
2017-05-23T06:08:50.205Z,18.52
2017-05-23T06:09:59.169Z,18.6
2017-05-23T06:11:08.135Z,18.65
2017-05-23T06:12:17.102Z,18.58
2017-05-23T06:13:26.329Z,18.72
2017-05-23T06:14:35.293Z,18.72
2017-05-23T06:15:44.259Z,18.75
2017-05-23T06:16:53.222Z,18.76
2017-05-23T06:18:02.188Z,18.76
2017-05-23T06:19:11.485Z,18.84
2017-05-23T06:20:20.467Z,18.84
2017-05-23T06:21:29.537Z,18.91
2017-05-23T06:22:38.516Z,18.84
2017-05-23T06:23:47.590Z,18.8
2017-05-23T06:24:56.877Z,18.82
2017-05-23T06:26:05.862Z,18.91
2017-05-23T06:27:14.845Z,18.87
2017-05-23T06:28:23.824Z,18.95
2017-05-23T06:29:32.812Z,18.98
2017-05-23T06:30:42.101Z,19.08
2017-05-23T06:31:51.094Z,19.1
2017-05-23T06:33:00.405Z,19.18
2017-05-23T06:34:09.392Z,19.21
2017-05-23T06:35:18.376Z,19.11
2017-05-23T06:36:27.659Z,19.13
2017-05-23T06:37:36.643Z,19.21
2017-05-23T06:38:45.635Z,19.29
2017-05-23T06:39:54.622Z,19.33
2017-05-23T06:41:03.615Z,19.32
2017-05-23T06:42:12.897Z,19.44
2017-05-23T06:43:21.878Z,19.4
2017-05-23T06:44:30.872Z,19.54
2017-05-23T06:45:39.891Z,19.55
2017-05-23T06:46:48.879Z,19.54
2017-05-23T06:47:58.260Z,19.58
2017-05-23T06:49:07.252Z,19.55
2017-05-23T06:50:16.241Z,19.61
2017-05-23T06:51:25.319Z,19.69
2017-05-23T06:52:34.314Z,19.61
2017-05-23T06:53:43.771Z,19.68
2017-05-23T06:54:52.765Z,19.68
2017-05-23T06:56:01.761Z,19.65
2017-05-23T06:57:10.751Z,19.74
2017-05-23T06:58:19.730Z,19.78
2017-05-23T06:59:28.994Z,19.73
2017-05-23T07:00:37.953Z,19.84
2017-05-23T07:01:47.473Z,19.91
2017-05-23T07:02:58.173Z,19.94
2017-05-23T07:04:07.701Z,19.98
2017-05-23T07:05:16.925Z,20.08
2017-05-23T07:06:25.885Z,20.08
2017-05-23T07:07:34.845Z,20.08
2017-05-23T07:08:43.903Z,20.11
2017-05-23T07:09:52.873Z,20.14
2017-05-23T07:11:02.140Z,20.13
2017-05-23T07:12:11.101Z,20.23
2017-05-23T07:13:20.067Z,20.26
2017-05-23T07:14:29.026Z,20.35
2017-05-23T07:15:37.985Z,20.36
2017-05-23T07:16:47.213Z,20.42
2017-05-23T07:17:56.180Z,20.47
2017-05-23T07:19:05.145Z,20.47
2017-05-23T07:20:14.108Z,20.52
2017-05-23T07:21:23.462Z,20.58
2017-05-23T07:22:33.506Z,20.59
2017-05-23T07:23:43.141Z,20.61
2017-05-23T07:24:52.335Z,20.73
2017-05-23T07:26:01.300Z,20.74
2017-05-23T07:27:10.261Z,20.62
2017-05-23T07:28:19.523Z,20.57
2017-05-23T07:29:28.490Z,20.72
2017-05-23T07:30:37.458Z,20.72
2017-05-23T07:31:46.422Z,20.84
2017-05-23T07:32:55.393Z,20.84
2017-05-23T07:34:04.660Z,20.92
2017-05-23T07:35:13.622Z,20.85
2017-05-23T07:36:22.578Z,20.87
2017-05-23T07:37:31.541Z,20.87
2017-05-23T07:38:40.510Z,21.01
2017-05-23T07:39:49.863Z,20.98
2017-05-23T07:40:58.912Z,21.09
2017-05-23T07:42:07.877Z,21.14
2017-05-23T07:43:16.843Z,21.16
2017-05-23T07:44:25.812Z,21.22
2017-05-23T07:45:35.409Z,21.19
2017-05-23T07:46:44.429Z,21.22
2017-05-23T07:47:53.404Z,21.29
2017-05-23T07:49:02.377Z,21.16
2017-05-23T07:50:11.673Z,21.25
2017-05-23T07:51:20.936Z,21.29
2017-05-23T07:52:30.216Z,21.24
2017-05-23T07:53:39.183Z,21.27
2017-05-23T07:54:48.152Z,21.28
2017-05-23T07:55:57.119Z,21.28
2017-05-23T07:57:06.668Z,21.35
2017-05-23T07:58:15.633Z,21.43
2017-05-23T07:59:24.599Z,21.38
2017-05-23T08:00:33.559Z,21.43
2017-05-23T08:01:42.523Z,21.44
2017-05-23T08:02:51.786Z,21.52
2017-05-23T08:04:02.165Z,21.56
2017-05-23T08:05:11.519Z,21.52
2017-05-23T08:06:20.493Z,21.56
2017-05-23T08:07:29.455Z,21.59
2017-05-23T08:08:38.993Z,21.77
2017-05-23T08:09:47.965Z,21.72
2017-05-23T08:10:56.934Z,21.77
2017-05-23T08:12:05.903Z,21.83
2017-05-23T08:13:14.870Z,21.94
2017-05-23T08:14:24.146Z,21.88
2017-05-23T08:15:33.136Z,21.96
2017-05-23T08:16:42.110Z,22.02
2017-05-23T08:17:51.073Z,22.02
2017-05-23T08:19:00.039Z,22.09
2017-05-23T08:20:09.252Z,22.15
2017-05-23T08:21:18.218Z,22.15
2017-05-23T08:22:27.189Z,22.24
2017-05-23T08:23:36.195Z,22.39
2017-05-23T08:24:45.164Z,22.37
2017-05-23T08:25:54.430Z,22.49
2017-05-23T08:27:03.395Z,22.42
2017-05-23T08:28:12.359Z,22.49
2017-05-23T08:29:21.413Z,22.43
2017-05-23T08:30:30.374Z,22.52
2017-05-23T08:31:39.581Z,22.57
2017-05-23T08:32:48.546Z,22.54
2017-05-23T08:33:57.528Z,22.64
2017-05-23T08:35:06.488Z,22.61
2017-05-23T08:36:15.453Z,22.75
2017-05-23T08:37:24.718Z,22.76
2017-05-23T08:38:33.681Z,22.7
2017-05-23T08:39:42.687Z,22.83
2017-05-23T08:40:51.667Z,22.79
2017-05-23T08:42:00.631Z,22.72
2017-05-23T08:43:09.906Z,22.82
2017-05-23T08:44:18.873Z,22.8
2017-05-23T08:45:27.926Z,22.82
2017-05-23T08:46:36.918Z,22.92
2017-05-23T08:47:46.212Z,22.94
2017-05-23T08:48:55.812Z,23.07
2017-05-23T08:50:04.792Z,23.02
2017-05-23T08:51:14.091Z,23.04
2017-05-23T08:52:23.053Z,23.12
2017-05-23T08:53:32.018Z,23.07
2017-05-23T08:54:41.235Z,23.19
2017-05-23T08:55:50.197Z,23.22
2017-05-23T08:56:59.164Z,23.23
2017-05-23T08:58:08.125Z,23.17
2017-05-23T08:59:17.090Z,23.16
2017-05-23T09:00:26.316Z,23.13
2017-05-23T09:01:35.319Z,23.16
2017-05-23T09:02:44.410Z,23.16
2017-05-23T09:03:53.379Z,23.27
2017-05-23T09:05:03.581Z,23.28
2017-05-23T09:06:13.024Z,23.25
2017-05-23T09:07:22.183Z,23.23
2017-05-23T09:08:31.318Z,23.19
2017-05-23T09:09:40.505Z,23.2
2017-05-23T09:10:49.913Z,23.27
2017-05-23T09:11:59.540Z,23.23
2017-05-23T09:13:08.897Z,23.33
2017-05-23T09:14:18.171Z,23.35
2017-05-23T09:15:27.570Z,23.35
2017-05-23T09:16:36.653Z,23.31
2017-05-23T09:17:46.126Z,23.38
2017-05-23T09:18:55.416Z,23.36
2017-05-23T09:20:04.653Z,23.46
2017-05-23T09:21:14.071Z,23.53
2017-05-23T09:22:23.243Z,23.6
2017-05-23T09:23:32.701Z,23.7
2017-05-23T09:24:41.806Z,23.63
2017-05-23T09:25:50.877Z,23.54
2017-05-23T09:26:59.993Z,23.48
2017-05-23T09:28:09.141Z,23.46
2017-05-23T09:29:19.414Z,23.35
2017-05-23T09:30:28.551Z,23.35
2017-05-23T09:31:38.073Z,23.27
2017-05-23T09:32:47.302Z,23.19
2017-05-23T09:33:56.588Z,23.09
2017-05-23T09:35:06.091Z,23.1
2017-05-23T09:36:15.452Z,23.09
2017-05-23T09:37:24.605Z,23.1
2017-05-23T09:38:33.990Z,23.12
2017-05-23T09:39:43.286Z,23.1
2017-05-23T09:40:53.106Z,23.16
2017-05-23T09:42:02.319Z,23.1
2017-05-23T09:43:11.464Z,23.12
2017-05-23T09:44:20.949Z,23.09
2017-05-23T09:45:30.047Z,23.05
2017-05-23T09:46:39.565Z,23.07
2017-05-23T09:47:48.699Z,23.01
2017-05-23T09:48:57.881Z,23.02
2017-05-23T09:50:07.447Z,23.13
2017-05-23T09:51:17.345Z,23.19
2017-05-23T09:52:27.150Z,23.28
2017-05-23T09:53:36.581Z,23.31
2017-05-23T09:54:45.702Z,23.4
2017-05-23T09:55:54.826Z,23.39
2017-05-23T09:57:03.891Z,23.47
2017-05-23T09:58:13.439Z,23.53
2017-05-23T09:59:22.526Z,23.57
2017-05-23T10:00:31.702Z,23.57
2017-05-23T10:01:40.959Z,23.65
2017-05-23T10:02:50.129Z,23.78
2017-05-23T10:03:59.671Z,23.76
2017-05-23T10:05:08.637Z,23.73
2017-05-23T10:06:17.607Z,23.79
2017-05-23T10:07:26.576Z,23.91
2017-05-23T10:08:35.863Z,23.95
2017-05-23T10:09:45.079Z,23.97
2017-05-23T10:10:54.043Z,23.97
2017-05-23T10:12:03.006Z,23.93
2017-05-23T10:13:12.069Z,23.85
2017-05-23T10:14:21.038Z,23.79
2017-05-23T10:15:30.258Z,23.72
2017-05-23T10:16:39.223Z,23.6
2017-05-23T10:17:48.242Z,23.7
2017-05-23T10:18:57.211Z,23.58
2017-05-23T10:20:06.175Z,23.68
2017-05-23T10:21:15.534Z,23.7
2017-05-23T10:22:24.499Z,23.72
2017-05-23T10:23:33.478Z,23.87
2017-05-23T10:24:42.446Z,23.85
2017-05-23T10:25:52.385Z,23.95
2017-05-23T10:27:03.518Z,24.02
2017-05-23T10:28:12.852Z,24.05
2017-05-23T10:29:21.828Z,24.05
2017-05-23T10:30:30.797Z,24.08
2017-05-23T10:31:39.765Z,24.09
2017-05-23T10:32:48.978Z,24.18
2017-05-23T10:33:57.970Z,24.15
2017-05-23T10:35:07.023Z,24.2
2017-05-23T10:36:15.991Z,24.18
2017-05-23T10:37:24.961Z,24.2
2017-05-23T10:38:34.177Z,24.16
2017-05-23T10:39:43.144Z,24.12
2017-05-23T10:40:52.111Z,24.24
2017-05-23T10:42:01.078Z,24.27
2017-05-23T10:43:10.042Z,24.3
2017-05-23T10:44:19.261Z,24.25
2017-05-23T10:45:28.552Z,24.32
2017-05-23T10:46:37.512Z,24.43
2017-05-23T10:47:46.482Z,24.32
2017-05-23T10:48:55.446Z,24.35
2017-05-23T10:50:04.658Z,24.45
2017-05-23T10:51:13.622Z,24.42
2017-05-23T10:52:22.591Z,24.4
2017-05-23T10:53:31.551Z,24.35
2017-05-23T10:54:40.521Z,24.31
2017-05-23T10:55:50.070Z,24.21
2017-05-23T10:56:59.037Z,24.16
2017-05-23T10:58:07.999Z,24.12
2017-05-23T10:59:16.968Z,24.12
2017-05-23T11:00:25.941Z,24.12
2017-05-23T11:01:35.209Z,24.12
2017-05-23T11:02:44.261Z,24.2
2017-05-23T11:03:53.343Z,24.21
2017-05-23T11:05:02.312Z,24.2
2017-05-23T11:06:11.608Z,24.22
2017-05-23T11:07:20.939Z,24.24
2017-05-23T11:08:29.910Z,24.34
2017-05-23T11:09:38.930Z,24.32
2017-05-23T11:10:47.896Z,24.42
2017-05-23T11:11:56.947Z,24.42
2017-05-23T11:13:06.213Z,24.46
2017-05-23T11:14:15.184Z,24.4
2017-05-23T11:15:24.256Z,24.43
2017-05-23T11:16:33.307Z,24.39
2017-05-23T11:17:42.273Z,24.4
2017-05-23T11:18:51.677Z,24.43
2017-05-23T11:20:00.939Z,24.42
2017-05-23T11:21:09.937Z,24.4
2017-05-23T11:22:18.932Z,24.5
2017-05-23T11:23:27.928Z,24.58
2017-05-23T11:24:37.216Z,24.6
2017-05-23T11:25:46.295Z,24.6
2017-05-23T11:26:55.286Z,24.61
2017-05-23T11:28:04.341Z,24.53
2017-05-23T11:29:13.340Z,24.61
2017-05-23T11:30:22.645Z,24.6
2017-05-23T11:31:31.638Z,24.6
2017-05-23T11:32:40.634Z,24.53
2017-05-23T11:33:49.701Z,24.58
2017-05-23T11:34:59.098Z,24.57
2017-05-23T11:36:08.341Z,24.61
2017-05-23T11:37:17.329Z,24.55
2017-05-23T11:38:26.328Z,24.6
2017-05-23T11:39:35.326Z,24.58
2017-05-23T11:40:44.315Z,24.57
2017-05-23T11:41:53.555Z,24.55
2017-05-23T11:43:02.708Z,24.6
2017-05-23T11:44:11.691Z,24.58
2017-05-23T11:45:21.160Z,24.5
2017-05-23T11:46:30.327Z,24.52
2017-05-23T11:47:39.707Z,24.49
2017-05-23T11:48:48.724Z,24.53
2017-05-23T11:49:57.698Z,24.57
2017-05-23T11:51:06.678Z,24.49
2017-05-23T11:52:15.651Z,24.53
2017-05-23T11:53:24.875Z,24.42
2017-05-23T11:54:33.931Z,24.39
2017-05-23T11:55:42.897Z,24.4
2017-05-23T11:56:51.866Z,24.43
2017-05-23T11:58:01.296Z,24.39
2017-05-23T11:59:10.581Z,24.42
2017-05-23T12:00:19.600Z,24.37
2017-05-23T12:01:28.894Z,24.42
2017-05-23T12:02:37.861Z,24.42
2017-05-23T12:03:46.829Z,24.49
2017-05-23T12:04:56.045Z,24.53
2017-05-23T12:06:05.015Z,24.53
2017-05-23T12:07:13.975Z,24.55
2017-05-23T12:08:22.940Z,24.55
2017-05-23T12:09:31.912Z,24.52
2017-05-23T12:10:41.217Z,24.42
2017-05-23T12:11:50.183Z,24.42
2017-05-23T12:12:59.471Z,24.4
2017-05-23T12:14:08.439Z,24.37
2017-05-23T12:15:17.402Z,24.39
2017-05-23T12:16:26.619Z,24.42
2017-05-23T12:17:35.581Z,24.46
2017-05-23T12:18:44.546Z,24.35
2017-05-23T12:19:53.526Z,24.37
2017-05-23T12:21:02.489Z,24.39
2017-05-23T12:22:11.844Z,24.4
2017-05-23T12:23:20.805Z,24.4
2017-05-23T12:24:29.773Z,24.4
2017-05-23T12:25:38.733Z,24.46
2017-05-23T12:26:47.789Z,24.57
2017-05-23T12:27:57.059Z,24.53
2017-05-23T12:29:06.351Z,24.43
2017-05-23T12:30:15.321Z,24.49
2017-05-23T12:31:24.284Z,24.55
2017-05-23T12:32:33.244Z,24.5
2017-05-23T12:33:42.515Z,24.52
2017-05-23T12:34:51.573Z,24.52
2017-05-23T12:36:00.541Z,24.55
2017-05-23T12:37:09.505Z,24.52
2017-05-23T12:38:18.469Z,24.5
2017-05-23T12:39:27.687Z,24.6
2017-05-23T12:40:36.649Z,24.52
2017-05-23T12:41:45.625Z,24.45
2017-05-23T12:42:54.718Z,24.5
2017-05-23T12:44:03.766Z,24.52
2017-05-23T12:45:12.984Z,24.61
2017-05-23T12:46:21.963Z,24.52
2017-05-23T12:47:30.929Z,24.57
2017-05-23T12:48:39.899Z,24.58
2017-05-23T12:49:48.872Z,24.5
2017-05-23T12:50:58.144Z,24.58
2017-05-23T12:52:07.123Z,24.45
2017-05-23T12:53:16.438Z,24.53
2017-05-23T12:54:25.406Z,24.46
2017-05-23T12:55:34.372Z,24.55
2017-05-23T12:56:43.634Z,24.55
2017-05-23T12:57:52.691Z,24.57
2017-05-23T12:59:01.747Z,24.5
2017-05-23T13:00:11.082Z,24.5
2017-05-23T13:01:20.206Z,24.4
2017-05-23T13:02:29.477Z,24.42
2017-05-23T13:03:38.617Z,24.37
2017-05-23T13:04:47.653Z,24.34
2017-05-23T13:05:56.700Z,24.28
2017-05-23T13:07:05.670Z,24.32
2017-05-23T13:08:14.934Z,24.37
2017-05-23T13:09:23.904Z,24.37
2017-05-23T13:10:32.872Z,24.46
2017-05-23T13:11:41.837Z,24.43
2017-05-23T13:12:50.895Z,24.58
2017-05-23T13:14:00.202Z,24.6
2017-05-23T13:15:09.163Z,24.6
2017-05-23T13:16:18.133Z,24.61
2017-05-23T13:17:27.101Z,24.55
2017-05-23T13:18:36.075Z,24.5
2017-05-23T13:19:45.299Z,24.52
2017-05-23T13:20:54.271Z,24.62
2017-05-23T13:22:03.252Z,24.52
2017-05-23T13:23:12.222Z,24.62
2017-05-23T13:24:21.204Z,24.61
2017-05-23T13:25:30.418Z,24.62
2017-05-23T13:26:39.468Z,24.55
2017-05-23T13:27:48.522Z,24.55
2017-05-23T13:28:57.490Z,24.55
2017-05-23T13:30:06.459Z,24.57
2017-05-23T13:31:15.762Z,24.58
2017-05-23T13:32:25.063Z,24.6
2017-05-23T13:33:34.034Z,24.61
2017-05-23T13:34:43.002Z,24.68
2017-05-23T13:35:51.971Z,24.78
2017-05-23T13:37:01.188Z,24.77
2017-05-23T13:38:10.156Z,24.71
2017-05-23T13:39:19.127Z,24.78
2017-05-23T13:40:28.111Z,24.71
2017-05-23T13:41:37.096Z,24.76
2017-05-23T13:42:46.339Z,24.77
2017-05-23T13:43:55.311Z,24.71
2017-05-23T13:45:04.280Z,24.71
2017-05-23T13:46:13.245Z,24.84
2017-05-23T13:47:22.538Z,24.78
2017-05-23T13:48:31.810Z,24.71
2017-05-23T13:49:40.779Z,24.78
2017-05-23T13:50:49.746Z,24.76
2017-05-23T13:51:58.805Z,24.69
2017-05-23T13:53:07.773Z,24.67
2017-05-23T13:54:16.997Z,24.58
2017-05-23T13:55:25.965Z,24.62
2017-05-23T13:56:34.942Z,24.61
2017-05-23T13:57:43.911Z,24.6
2017-05-23T13:58:52.947Z,24.55
2017-05-23T14:00:02.253Z,24.6
2017-05-23T14:01:11.228Z,24.53
2017-05-23T14:02:20.199Z,24.58
2017-05-23T14:03:29.161Z,24.64
2017-05-23T14:04:38.123Z,24.52
2017-05-23T14:05:47.476Z,24.55
2017-05-23T14:06:56.770Z,24.58
2017-05-23T14:08:05.844Z,24.57
2017-05-23T14:09:14.811Z,24.6
2017-05-23T14:10:23.776Z,24.64
2017-05-23T14:11:33.311Z,24.71
2017-05-23T14:12:42.284Z,24.76
2017-05-23T14:13:51.250Z,24.67
2017-05-23T14:15:00.217Z,24.67
2017-05-23T14:16:09.186Z,24.6
2017-05-23T14:17:18.403Z,24.58
2017-05-23T14:18:27.369Z,24.58
2017-05-23T14:19:36.340Z,24.58
2017-05-23T14:20:45.305Z,24.58
2017-05-23T14:21:54.268Z,24.55
2017-05-23T14:23:03.759Z,24.45
2017-05-23T14:24:13.094Z,24.37
2017-05-23T14:25:22.072Z,24.46
2017-05-23T14:26:31.042Z,24.4
2017-05-23T14:27:40.007Z,24.43
2017-05-23T14:28:49.231Z,24.39
2017-05-23T14:29:58.201Z,24.4
2017-05-23T14:31:07.171Z,24.28
2017-05-23T14:32:16.135Z,24.27
2017-05-23T14:33:25.102Z,24.27
2017-05-23T14:34:34.376Z,24.3
2017-05-23T14:35:43.350Z,24.32
2017-05-23T14:36:52.316Z,24.28
2017-05-23T14:38:01.287Z,24.34
2017-05-23T14:39:10.254Z,24.27
2017-05-23T14:40:19.471Z,24.34
2017-05-23T14:41:28.434Z,24.31
2017-05-23T14:42:37.397Z,24.3
2017-05-23T14:43:46.360Z,24.3
2017-05-23T14:44:55.506Z,24.28
2017-05-23T14:46:04.865Z,24.24
2017-05-23T14:47:13.827Z,24.37
2017-05-23T14:48:22.802Z,24.4
2017-05-23T14:49:31.772Z,24.4
2017-05-23T14:50:40.736Z,24.42
2017-05-23T14:51:49.964Z,24.39
2017-05-23T14:52:58.928Z,24.34